Arch, New Mexico
Current Conditions -  °F | °C
As of 12:38 AM on Wednesday 22 Oct 2014 (Local Time) from KCVS Reporting Station
Haze Haze  
Wind Chill: 15°   Ceiling: 4000
Heat Index: 15°   Visibility: 5mi
Dew Point: 14°   Wind: 5mph
Humidity: 94%   Direction: 230°SW
Pressure: 30.11"   Gusts: NA
Location:  34.1669°N, 103.266°W
Report Text: KCVS 220638Z 23004KT 5SM BR FEW033 BKN040 15/14 A3011 RMK AO2A
Loading
Personal Weather Stations






























Interactive Weather Map
Tropical Storm Tracking
New forecast layout! Learn more

10-Day Weather Forecast

Advertisements
Track Severe Weather on mobile